Terminal Aerodrome Forecast
Issued by NWS Boise, ID

Home | Current Version | Previous Version | Text Only | Print | Product List | Glossary On
Versions: 1 2 3 4 5 6 7 8 9 10 11 12 13 14 15 16 17 18 19 20 21 22 23 24
000
FTUS45 KBOI 222321
TAFBNO
TAF
KBNO 222321Z 2300/2324 19006KT P6SM VCTS SCT050CB OVC090
      TEMPO 2300/2304 VRB20G45KT P6SM -TSRA BKN050CB
     FM230400 30006KT P6SM VCTS BKN090CB
     FM230800 16010KT P6SM FEW200=

USA.gov is the U.S. government's official web portal to all federal, state and local government web resources and services.